Time;durP1;ratioP1;P1;durP2;ratioP2;P2;SDS_P1;SDS_P2;PMS_P1;PMS_P2;Temp;Humidity;BMP_temperature;BMP_pressure;BME280_temperature;BME280_humidity;BME280_pressure;Samples;Min_cycle;Max_cycle;Signal;HPM_P1;HPM_P2
2022/07/10 00:00:14;;;;;;;1.50;1.02;;;17.50;99.90;;;;;;5094672;28;20028;-68
2022/07/10 00:02:41;;;;;;;1.00;1.00;;;17.50;99.90;;;;;;5094385;28;20024;-69
2022/07/10 00:05:09;;;;;;;1.38;1.00;;;17.40;99.90;;;;;;5094423;28;20050;-70
2022/07/10 00:07:34;;;;;;;1.00;0.88;;;17.40;99.90;;;;;;5095004;28;20039;-69
2022/07/10 00:10:00;;;;;;;1.10;0.90;;;17.40;99.90;;;;;;5095720;28;20032;-69
2022/07/10 00:12:26;;;;;;;1.10;1.00;;;17.30;99.90;;;;;;5095198;28;20024;-69
2022/07/10 00:14:52;;;;;;;0.85;0.85;;;17.30;99.90;;;;;;5095754;28;20056;-69
2022/07/10 00:17:17;;;;;;;0.88;0.88;;;17.30;99.90;;;;;;5095179;28;20036;-69
2022/07/10 00:19:43;;;;;;;1.13;0.90;;;17.30;99.90;;;;;;5095480;28;20091;-71
2022/07/10 00:22:09;;;;;;;0.80;0.80;;;17.20;99.90;;;;;;5095397;28;20024;-70
2022/07/10 00:24:35;;;;;;;0.85;0.82;;;17.20;99.90;;;;;;5095117;28;20115;-69
2022/07/10 00:27:00;;;;;;;1.38;0.95;;;17.20;99.90;;;;;;5095329;28;20028;-69
2022/07/10 00:29:26;;;;;;;5.35;0.88;;;17.20;99.90;;;;;;5094830;28;20491;-69
2022/07/10 00:31:51;;;;;;;2.05;1.13;;;17.10;99.90;;;;;;5095359;28;20117;-69
2022/07/10 00:34:17;;;;;;;1.17;0.80;;;17.10;99.90;;;;;;5094866;28;20028;-68
2022/07/10 00:36:43;;;;;;;1.50;1.00;;;17.10;99.90;;;;;;5095144;28;20020;-69
2022/07/10 00:39:09;;;;;;;3.20;1.10;;;17.10;99.90;;;;;;5095213;28;20024;-69
2022/07/10 00:41:35;;;;;;;0.82;0.80;;;17.10;99.90;;;;;;5094483;28;20020;-69
2022/07/10 00:44:02;;;;;;;2.17;0.93;;;17.10;99.90;;;;;;5095308;28;20081;-69
2022/07/10 00:46:30;;;;;;;2.15;1.40;;;17.10;99.90;;;;;;5094118;28;20464;-69
2022/07/10 00:48:56;;;;;;;1.55;1.13;;;17.10;99.90;;;;;;5095121;28;20021;-69
2022/07/10 00:51:25;;;;;;;1.83;1.48;;;17.10;99.90;;;;;;5094500;28;20077;-69
2022/07/10 00:53:51;;;;;;;1.20;1.10;;;17.00;99.90;;;;;;5095093;28;20056;-69
2022/07/10 00:56:24;;;;;;;1.48;1.20;;;17.00;99.90;;;;;;5094585;28;20058;-69
2022/07/10 00:58:50;;;;;;;1.30;1.20;;;17.00;99.90;;;;;;5094618;28;20089;-68
2022/07/10 01:01:16;;;;;;;1.48;1.00;;;17.00;99.90;;;;;;5094819;28;20039;-68
2022/07/10 01:03:46;;;;;;;2.42;1.10;;;17.00;99.90;;;;;;5094632;28;20020;-68
2022/07/10 01:06:12;;;;;;;1.40;1.05;;;17.00;99.90;;;;;;5094558;28;20490;-68
2022/07/10 01:08:39;;;;;;;1.75;1.17;;;17.00;99.90;;;;;;5094178;28;20060;-68
2022/07/10 01:11:05;;;;;;;1.08;0.82;;;17.00;99.90;;;;;;5094470;28;20028;-69
2022/07/10 01:13:31;;;;;;;1.30;0.95;;;17.00;99.90;;;;;;5094189;28;20024;-69
2022/07/10 01:15:57;;;;;;;0.93;0.93;;;17.00;99.90;;;;;;5094451;28;20422;-68
2022/07/10 01:18:25;;;;;;;1.40;1.05;;;17.00;99.90;;;;;;5093775;28;20035;-68
2022/07/10 01:20:52;;;;;;;1.55;1.27;;;17.00;99.90;;;;;;5094632;28;20035;-68
2022/07/10 01:23:17;;;;;;;1.23;1.10;;;17.00;99.90;;;;;;5094334;28;20383;-68
2022/07/10 01:25:43;;;;;;;1.70;1.25;;;17.00;99.90;;;;;;5093906;28;20024;-69
2022/07/10 01:28:09;;;;;;;2.90;1.05;;;17.00;99.90;;;;;;5093850;28;20167;-69
2022/07/10 01:30:34;;;;;;;1.35;1.10;;;17.00;99.90;;;;;;5093721;28;20039;-68
2022/07/10 01:33:00;;;;;;;3.22;1.25;;;17.00;99.90;;;;;;5094191;28;20433;-68
2022/07/10 01:35:26;;;;;;;1.88;1.20;;;17.00;99.90;;;;;;5093867;28;20081;-69
2022/07/10 01:37:51;;;;;;;1.15;1.05;;;17.00;99.90;;;;;;5093757;28;20020;-67
2022/07/10 01:40:17;;;;;;;1.55;1.10;;;16.90;99.90;;;;;;5094024;28;20028;-69
2022/07/10 01:42:43;;;;;;;1.13;1.00;;;16.90;99.90;;;;;;5093134;28;20073;-69
2022/07/10 01:45:10;;;;;;;1.00;0.98;;;16.90;99.90;;;;;;5093897;28;20115;-69
2022/07/10 01:47:36;;;;;;;1.20;1.08;;;16.90;99.90;;;;;;5093289;28;20039;-69
2022/07/10 01:50:03;;;;;;;1.20;0.80;;;16.90;99.90;;;;;;5093762;28;20439;-68
2022/07/10 01:52:29;;;;;;;2.30;1.00;;;16.90;99.90;;;;;;5093131;28;20461;-67
2022/07/10 01:54:54;;;;;;;1.30;1.20;;;16.90;99.90;;;;;;5094202;28;20085;-68
2022/07/10 01:57:20;;;;;;;1.63;1.27;;;16.80;99.90;;;;;;5093688;28;20074;-68
2022/07/10 01:59:46;;;;;;;0.93;0.88;;;16.90;99.90;;;;;;5093242;28;20548;-68
2022/07/10 02:02:11;;;;;;;1.35;1.10;;;16.80;99.90;;;;;;5093706;28;20078;-68
2022/07/10 02:04:44;;;;;;;3.50;1.30;;;16.80;99.90;;;;;;5093432;28;20026;-69
2022/07/10 02:07:14;;;;;;;1.42;0.98;;;16.80;99.90;;;;;;5092736;28;20032;-68
2022/07/10 02:09:41;;;;;;;1.47;1.20;;;16.80;99.90;;;;;;5092895;28;20115;-68
2022/07/10 02:12:13;;;;;;;1.10;1.00;;;16.80;99.90;;;;;;5093411;28;20369;-69
2022/07/10 02:14:39;;;;;;;1.38;0.93;;;16.80;99.90;;;;;;5093112;28;20392;-68
2022/07/10 02:17:06;;;;;;;1.15;0.90;;;16.80;99.90;;;;;;5093419;28;20020;-68
2022/07/10 02:19:32;;;;;;;1.30;1.20;;;16.80;99.90;;;;;;5093026;28;20107;-68
2022/07/10 02:21:58;;;;;;;1.35;1.08;;;16.80;99.90;;;;;;5093249;28;20491;-69
2022/07/10 02:24:24;;;;;;;1.98;1.05;;;16.80;99.90;;;;;;5092918;28;20111;-69
2022/07/10 02:26:49;;;;;;;1.25;1.15;;;16.80;99.90;;;;;;5093086;28;20479;-68
2022/07/10 02:29:15;;;;;;;1.20;1.10;;;16.80;99.90;;;;;;5093045;28;20189;-69
2022/07/10 02:31:41;;;;;;;3.50;1.00;;;16.80;99.90;;;;;;5092641;28;20123;-68
2022/07/10 02:34:11;;;;;;;1.65;1.10;;;16.80;99.90;;;;;;5093189;28;20475;-69
2022/07/10 02:36:38;;;;;;;2.08;0.95;;;16.80;99.90;;;;;;5092655;28;20028;-68
2022/07/10 02:39:04;;;;;;;1.83;1.23;;;16.80;99.90;;;;;;5092533;28;20055;-69
2022/07/10 02:41:30;;;;;;;1.25;1.13;;;16.80;99.90;;;;;;5092657;28;20032;-69
2022/07/10 02:43:56;;;;;;;1.63;1.10;;;16.80;99.90;;;;;;5093298;28;20032;-68
2022/07/10 02:46:21;;;;;;;1.48;1.17;;;16.80;99.90;;;;;;5093101;28;20390;-69
2022/07/10 02:48:47;;;;;;;1.08;0.98;;;16.80;99.90;;;;;;5092885;28;20058;-69
2022/07/10 02:51:12;;;;;;;1.67;1.00;;;16.80;99.90;;;;;;5092786;28;20042;-68
2022/07/10 02:53:39;;;;;;;1.20;1.10;;;16.80;99.90;;;;;;5092275;28;20082;-68
2022/07/10 02:56:04;;;;;;;1.05;0.82;;;16.80;99.90;;;;;;5092954;28;20056;-68
2022/07/10 02:58:31;;;;;;;2.35;1.10;;;16.80;99.90;;;;;;5092418;28;20033;-68
2022/07/10 03:00:56;;;;;;;1.25;1.15;;;16.80;99.90;;;;;;5093118;28;20028;-69
2022/07/10 03:03:22;;;;;;;1.20;1.00;;;16.70;99.90;;;;;;5092626;28;20036;-69
2022/07/10 03:05:48;;;;;;;1.15;0.82;;;16.70;99.90;;;;;;5092358;28;20031;-68
2022/07/10 03:08:13;;;;;;;1.25;1.15;;;16.70;99.90;;;;;;5092632;28;20161;-68
2022/07/10 03:10:40;;;;;;;1.25;1.15;;;16.70;99.90;;;;;;5092542;28;20028;-69
2022/07/10 03:13:06;;;;;;;1.10;0.82;;;16.70;99.90;;;;;;5092754;28;20028;-69
2022/07/10 03:15:32;;;;;;;1.25;1.10;;;16.70;99.90;;;;;;5092026;28;20392;-68
2022/07/10 03:17:58;;;;;;;1.10;1.00;;;16.70;99.90;;;;;;5092522;28;20029;-68
2022/07/10 03:20:23;;;;;;;2.75;1.10;;;16.70;99.90;;;;;;5096350;28;20039;-68
2022/07/10 03:22:49;;;;;;;0.93;0.93;;;16.70;99.90;;;;;;5096019;28;20024;-68
2022/07/10 03:25:15;;;;;;;1.10;1.00;;;16.70;99.90;;;;;;5096740;28;20048;-69
2022/07/10 03:27:41;;;;;;;1.10;1.00;;;16.70;99.90;;;;;;5095983;28;20069;-68
2022/07/10 03:30:07;;;;;;;1.63;1.10;;;16.60;99.90;;;;;;5096768;28;20436;-69
2022/07/10 03:32:33;;;;;;;1.40;1.30;;;16.60;99.90;;;;;;5095781;28;20051;-68
2022/07/10 03:34:59;;;;;;;1.63;1.10;;;16.60;99.90;;;;;;5096504;28;20032;-68
2022/07/10 03:37:25;;;;;;;1.60;1.23;;;16.60;99.90;;;;;;5096413;28;20019;-68
2022/07/10 03:39:50;;;;;;;1.48;1.13;;;16.60;99.90;;;;;;5095642;28;20024;-68
2022/07/10 03:42:16;;;;;;;1.08;0.98;;;16.60;99.90;;;;;;5096307;28;20067;-68
2022/07/10 03:44:42;;;;;;;2.33;1.20;;;16.70;99.90;;;;;;5095973;28;20048;-68
2022/07/10 03:47:07;;;;;;;2.25;1.40;;;16.70;99.90;;;;;;5096295;28;20031;-68
2022/07/10 03:49:33;;;;;;;1.90;1.40;;;16.70;99.90;;;;;;5095706;28;20024;-68
2022/07/10 03:52:01;;;;;;;1.38;1.10;;;16.70;99.90;;;;;;5096107;28;20028;-69
2022/07/10 03:54:27;;;;;;;1.23;1.10;;;16.80;99.90;;;;;;5096097;28;20103;-68
2022/07/10 03:59:37;;;;;;;1.45;1.00;;;16.80;99.90;;;;;;5095462;28;20164;-68
2022/07/10 04:02:03;;;;;;;1.40;1.10;;;16.80;99.90;;;;;;5095941;28;20082;-68
2022/07/10 04:04:28;;;;;;;1.77;1.08;;;16.80;99.90;;;;;;5095903;28;20380;-69
2022/07/10 04:06:54;;;;;;;1.52;1.10;;;16.80;99.90;;;;;;5095409;28;20028;-69
2022/07/10 04:09:20;;;;;;;1.83;1.35;;;16.80;99.90;;;;;;5095402;28;20020;-68
2022/07/10 04:11:45;;;;;;;1.65;1.20;;;16.90;99.90;;;;;;5094380;28;20047;-69
2022/07/10 04:14:11;;;;;;;1.65;1.00;;;16.90;99.90;;;;;;5095941;28;20035;-68
2022/07/10 04:16:37;;;;;;;1.77;1.30;;;16.90;99.90;;;;;;5095264;28;20442;-68
2022/07/10 04:19:02;;;;;;;1.10;0.98;;;17.00;99.90;;;;;;5095670;28;20032;-68
2022/07/10 04:21:28;;;;;;;1.25;1.15;;;17.00;99.90;;;;;;5095671;28;20040;-68
2022/07/10 04:23:54;;;;;;;1.50;0.95;;;17.00;99.90;;;;;;5095182;28;20024;-68
2022/07/10 04:26:19;;;;;;;1.20;1.10;;;17.00;99.90;;;;;;5095533;28;20044;-68
2022/07/10 04:28:45;;;;;;;1.02;0.90;;;17.10;99.90;;;;;;5094923;28;20476;-68
2022/07/10 04:31:11;;;;;;;0.90;0.85;;;17.10;99.90;;;;;;5094502;28;20039;-70
2022/07/10 04:33:37;;;;;;;1.70;1.17;;;17.20;99.90;;;;;;5094670;28;20036;-68
2022/07/10 04:36:02;;;;;;;1.10;0.90;;;17.20;99.90;;;;;;5095017;28;20491;-68
2022/07/10 04:38:28;;;;;;;0.95;0.85;;;17.20;99.90;;;;;;5094840;28;20141;-68
2022/07/10 04:40:54;;;;;;;2.17;1.23;;;17.30;99.90;;;;;;5094774;28;20118;-68
2022/07/10 04:43:20;;;;;;;1.40;1.02;;;17.30;99.90;;;;;;5095353;28;20028;-68
2022/07/10 04:45:46;;;;;;;2.10;1.10;;;17.30;99.90;;;;;;5094717;28;20031;-68
2022/07/10 04:48:12;;;;;;;1.30;1.20;;;17.30;99.90;;;;;;5095038;28;20551;-69
2022/07/10 04:50:38;;;;;;;2.67;0.80;;;17.40;99.90;;;;;;5094240;28;20050;-68
2022/07/10 04:53:03;;;;;;;1.20;1.10;;;17.40;99.90;;;;;;5094970;28;20039;-68
2022/07/10 04:55:29;;;;;;;1.08;0.98;;;17.40;99.90;;;;;;5094865;28;20028;-68
2022/07/10 04:57:55;;;;;;;1.23;0.90;;;17.40;99.90;;;;;;5094202;28;20464;-68
2022/07/10 05:00:21;;;;;;;1.25;0.88;;;17.40;99.90;;;;;;5094891;28;20028;-68
2022/07/10 05:02:47;;;;;;;1.23;1.05;;;17.50;99.90;;;;;;5094408;28;20040;-68
2022/07/10 05:05:13;;;;;;;1.17;1.08;;;17.50;99.90;;;;;;5094695;28;20122;-68
2022/07/10 05:07:38;;;;;;;1.10;1.00;;;17.60;99.90;;;;;;5094502;28;20024;-68
2022/07/10 05:10:05;;;;;;;2.25;1.02;;;17.70;99.90;;;;;;5093489;28;20024;-68
2022/07/10 05:12:30;;;;;;;1.02;0.93;;;17.70;99.90;;;;;;5094338;28;20051;-68
2022/07/10 05:14:57;;;;;;;1.60;1.10;;;17.80;99.90;;;;;;5095749;28;20516;-69
2022/07/10 05:17:23;;;;;;;0.90;0.90;;;17.80;99.90;;;;;;5102914;28;20038;-69
2022/07/10 05:19:51;;;;;;;1.20;1.00;;;17.90;99.40;;;;;;5095240;28;20032;-68
2022/07/10 05:22:17;;;;;;;2.45;1.20;;;17.90;99.20;;;;;;5094057;28;20027;-68
2022/07/10 05:24:42;;;;;;;2.08;0.90;;;17.90;99.10;;;;;;5095223;28;20028;-68
2022/07/10 05:27:08;;;;;;;1.10;1.00;;;17.90;99.20;;;;;;5093659;28;20032;-68
2022/07/10 05:29:33;;;;;;;2.03;1.30;;;17.90;98.70;;;;;;5096357;28;20040;-68
2022/07/10 05:31:59;;;;;;;1.33;1.10;;;17.90;98.40;;;;;;5101793;28;20024;-68
2022/07/10 05:34:25;;;;;;;2.95;1.23;;;17.90;98.50;;;;;;5090214;28;20464;-68
2022/07/10 05:36:50;;;;;;;1.75;1.30;;;17.90;98.50;;;;;;5092868;28;20032;-67
2022/07/10 05:39:16;;;;;;;1.13;1.02;;;17.90;98.60;;;;;;5093458;28;20036;-68
2022/07/10 05:41:42;;;;;;;1.50;1.10;;;17.90;98.30;;;;;;5092671;28;20024;-67
2022/07/10 05:44:07;;;;;;;1.85;1.17;;;17.90;98.10;;;;;;5093865;28;20024;-69
2022/07/10 05:46:33;;;;;;;2.70;1.20;;;17.90;98.30;;;;;;5093802;28;20073;-69
2022/07/10 05:48:59;;;;;;;1.30;1.20;;;17.90;98.20;;;;;;5093365;28;20032;-69
2022/07/10 05:51:24;;;;;;;1.30;1.20;;;18.00;98.10;;;;;;5093361;28;20040;-69
2022/07/10 05:53:50;;;;;;;1.00;0.88;;;18.00;97.80;;;;;;5092125;28;20024;-69
2022/07/10 05:56:16;;;;;;;1.33;1.05;;;18.10;97.20;;;;;;5093745;28;20055;-69
2022/07/10 05:58:41;;;;;;;1.35;1.25;;;18.10;97.20;;;;;;5093312;28;20460;-69
2022/07/10 06:01:07;;;;;;;1.38;1.10;;;18.20;96.50;;;;;;5093398;28;20031;-69
2022/07/10 06:03:33;;;;;;;1.50;1.10;;;18.20;96.50;;;;;;5093464;28;20080;-70
2022/07/10 06:05:59;;;;;;;1.40;1.10;;;18.20;96.30;;;;;;5093166;28;20024;-69
2022/07/10 06:08:25;;;;;;;1.60;1.20;;;18.20;96.50;;;;;;5093457;28;20020;-70
2022/07/10 06:10:51;;;;;;;4.72;1.98;;;18.20;96.00;;;;;;5093053;28;20424;-69
2022/07/10 06:13:16;;;;;;;2.75;1.10;;;18.20;96.40;;;;;;5093239;28;20457;-69
2022/07/10 06:15:42;;;;;;;1.63;1.50;;;18.20;96.30;;;;;;5092721;28;20071;-69
2022/07/10 06:18:08;;;;;;;3.90;1.15;;;18.20;96.20;;;;;;5093298;28;20031;-69
2022/07/10 06:20:33;;;;;;;1.40;1.17;;;18.20;96.20;;;;;;5093226;28;20594;-69
2022/07/10 06:22:59;;;;;;;1.20;1.02;;;18.10;96.20;;;;;;5093077;28;20055;-70
2022/07/10 06:25:25;;;;;;;2.05;1.27;;;18.10;96.50;;;;;;5093124;28;20032;-68
2022/07/10 06:27:50;;;;;;;1.77;1.20;;;18.10;96.40;;;;;;5092547;28;20097;-69
2022/07/10 06:30:16;;;;;;;4.72;1.33;;;18.00;96.40;;;;;;5092810;28;20112;-69
2022/07/10 06:32:42;;;;;;;1.30;1.20;;;18.00;96.60;;;;;;5093030;28;20024;-68
2022/07/10 06:35:08;;;;;;;2.67;1.48;;;18.00;96.20;;;;;;5092933;28;20545;-68
2022/07/10 06:37:34;;;;;;;0.95;0.93;;;18.00;96.40;;;;;;5092422;28;20023;-69
2022/07/10 06:40:00;;;;;;;1.20;1.10;;;18.10;96.10;;;;;;5092651;28;20376;-68
2022/07/10 06:42:25;;;;;;;1.40;1.00;;;18.10;96.00;;;;;;5092411;28;20028;-69
2022/07/10 06:44:51;;;;;;;2.63;1.30;;;18.20;95.60;;;;;;5092237;28;20028;-70
2022/07/10 06:50:07;;;;;;;2.33;1.23;;;18.30;95.80;;;;;;5092431;28;20077;-69
2022/07/10 06:52:33;;;;;;;1.02;0.95;;;18.70;96.50;;;;;;5092501;28;20036;-69
2022/07/10 06:55:00;;;;;;;2.75;1.50;;;19.10;95.00;;;;;;5091793;28;20020;-69
2022/07/10 06:57:26;;;;;;;2.08;1.10;;;19.20;93.30;;;;;;5092493;28;20486;-68
2022/07/10 06:59:52;;;;;;;3.22;1.10;;;19.40;92.60;;;;;;5092164;28;20107;-69
2022/07/10 07:02:18;;;;;;;1.88;1.20;;;20.00;91.30;;;;;;5092455;28;20032;-68
2022/07/10 07:04:45;;;;;;;1.40;1.00;;;20.10;87.50;;;;;;5092523;28;20077;-68
2022/07/10 07:07:12;;;;;;;1.00;1.00;;;20.10;86.40;;;;;;5092380;28;20028;-69
2022/07/10 07:09:38;;;;;;;2.80;1.05;;;19.90;85.80;;;;;;5092615;28;20472;-68
2022/07/10 07:12:04;;;;;;;3.40;1.45;;;19.80;86.40;;;;;;5092087;28;20122;-68
2022/07/10 07:14:29;;;;;;;2.47;1.15;;;19.60;85.50;;;;;;5092549;28;20032;-69
2022/07/10 07:17:09;;;;;;;1.13;1.00;;;19.50;85.30;;;;;;5091818;28;20027;-69
2022/07/10 07:25:06;;;;;;;1.08;0.98;;;19.30;88.70;;;;;;5091776;28;20039;-68
2022/07/10 07:27:34;;;;;;;1.13;0.95;;;19.40;88.40;;;;;;5091920;28;20472;-68
2022/07/10 07:30:11;;;;;;;2.50;1.08;;;19.50;87.30;;;;;;5092019;28;20485;-69
2022/07/10 07:32:38;;;;;;;1.00;0.90;;;19.50;85.80;;;;;;5092268;28;20039;-69
2022/07/10 07:35:04;;;;;;;1.08;0.90;;;19.40;83.50;;;;;;5091997;28;20028;-68
2022/07/10 07:37:39;;;;;;;2.03;1.27;;;19.50;82.90;;;;;;5092375;28;20085;-68
2022/07/10 07:40:07;;;;;;;1.55;0.90;;;19.90;81.90;;;;;;5091960;28;20024;-69
2022/07/10 07:42:33;;;;;;;2.33;1.08;;;20.40;80.50;;;;;;5092147;28;20357;-69
2022/07/10 07:44:59;;;;;;;1.90;1.00;;;20.50;78.60;;;;;;5091911;28;20017;-69
2022/07/10 07:47:25;;;;;;;0.95;0.90;;;20.40;78.30;;;;;;5092064;28;20067;-70
2022/07/10 07:49:50;;;;;;;0.95;0.85;;;20.20;78.00;;;;;;5091942;28;20031;-70
2022/07/10 07:52:16;;;;;;;1.23;0.82;;;20.10;79.10;;;;;;5092123;28;20032;-69
2022/07/10 07:54:41;;;;;;;0.73;0.73;;;19.90;80.20;;;;;;5092200;28;20081;-68
2022/07/10 07:57:07;;;;;;;1.30;0.88;;;19.80;82.10;;;;;;5091445;28;20103;-69
2022/07/10 07:59:33;;;;;;;5.75;1.55;;;19.60;81.50;;;;;;5092124;28;20464;-69
2022/07/10 08:01:58;;;;;;;1.35;0.93;;;19.50;82.60;;;;;;5091529;28;20035;-69
2022/07/10 08:04:24;;;;;;;1.20;0.98;;;19.40;84.30;;;;;;5091984;28;20103;-69
2022/07/10 08:06:52;;;;;;;1.42;1.00;;;19.20;86.30;;;;;;5094065;28;20043;-69
2022/07/10 08:09:18;;;;;;;1.67;1.10;;;19.10;90.10;;;;;;5095321;28;20476;-68
2022/07/10 08:11:44;;;;;;;1.45;1.20;;;18.90;91.40;;;;;;5095621;28;20032;-69
2022/07/10 08:14:10;;;;;;;1.25;0.90;;;18.80;92.30;;;;;;5094066;28;20036;-68
2022/07/10 08:16:35;;;;;;;1.67;1.02;;;18.70;92.80;;;;;;5095523;28;20060;-69
2022/07/10 08:19:01;;;;;;;0.90;0.90;;;18.60;93.50;;;;;;5095515;28;20063;-68
2022/07/10 08:21:27;;;;;;;1.67;1.27;;;18.40;93.60;;;;;;5095333;28;20545;-68
2022/07/10 08:23:53;;;;;;;4.05;1.30;;;18.30;94.50;;;;;;5095066;28;20063;-68
2022/07/10 08:26:19;;;;;;;3.50;1.17;;;18.20;94.80;;;;;;5095362;28;20023;-69
2022/07/10 08:28:45;;;;;;;1.70;1.17;;;18.20;95.60;;;;;;5095041;28;20111;-69
2022/07/10 08:31:10;;;;;;;6.03;1.42;;;18.10;95.70;;;;;;5094633;28;20222;-68
2022/07/10 08:33:36;;;;;;;1.23;0.95;;;18.10;96.50;;;;;;5095328;28;20036;-68
2022/07/10 08:36:02;;;;;;;1.45;1.10;;;18.10;96.80;;;;;;5094425;28;20146;-68
2022/07/10 08:38:29;;;;;;;1.90;1.30;;;18.10;96.60;;;;;;5094543;28;20066;-68
2022/07/10 08:40:58;;;;;;;1.40;1.27;;;18.10;97.10;;;;;;5095839;28;20031;-69
2022/07/10 08:43:25;;;;;;;1.15;1.05;;;18.10;97.50;;;;;;5094345;28;20106;-69
2022/07/10 08:45:53;;;;;;;1.40;1.20;;;18.00;97.30;;;;;;5094106;28;20111;-69
2022/07/10 08:48:22;;;;;;;1.02;0.93;;;18.00;98.40;;;;;;5097056;28;20441;-69
2022/07/10 08:50:51;;;;;;;0.82;0.80;;;18.10;97.10;;;;;;5101477;28;20024;-69
2022/07/10 08:53:26;;;;;;;1.15;0.65;;;18.40;96.90;;;;;;5098639;28;20028;-69
2022/07/10 08:55:51;;;;;;;0.68;0.68;;;18.60;94.40;;;;;;5092935;28;20039;-69
2022/07/10 08:58:19;;;;;;;3.42;0.90;;;18.90;92.80;;;;;;5094099;28;20048;-69
2022/07/10 09:00:45;;;;;;;0.82;0.80;;;19.10;92.00;;;;;;5091640;28;20077;-69
2022/07/10 09:03:10;;;;;;;3.50;1.00;;;19.30;91.10;;;;;;5093726;28;20406;-70
2022/07/10 09:05:36;;;;;;;0.88;0.77;;;19.50;89.80;;;;;;5094378;28;20112;-69
2022/07/10 09:08:02;;;;;;;2.60;0.70;;;19.70;90.30;;;;;;5094643;28;20467;-69
2022/07/10 09:10:28;;;;;;;2.97;1.10;;;19.80;89.00;;;;;;5093575;28;20039;-70
2022/07/10 09:12:58;;;;;;;1.10;0.98;;;19.70;88.50;;;;;;5093769;28;20063;-69
2022/07/10 09:15:26;;;;;;;0.98;0.70;;;19.90;89.90;;;;;;5093715;28;20051;-70
2022/07/10 09:18:00;;;;;;;0.60;0.60;;;20.00;87.00;;;;;;5093503;28;20020;-69
2022/07/10 09:20:36;;;;;;;2.28;0.75;;;20.00;86.10;;;;;;5093987;28;20034;-69
2022/07/10 09:23:25;;;;;;;0.73;0.68;;;20.20;83.60;;;;;;5093479;28;20488;-69
2022/07/10 09:25:53;;;;;;;1.90;0.82;;;20.10;79.90;;;;;;5091162;28;20492;-70
2022/07/10 09:28:20;;;;;;;0.85;0.80;;;20.00;79.90;;;;;;5093087;28;20040;-70
2022/07/10 09:30:47;;;;;;;2.47;0.85;;;20.10;80.80;;;;;;5094082;28;20114;-70
2022/07/10 09:33:30;;;;;;;1.23;1.05;;;20.00;77.50;;;;;;5092948;28;20038;-69
2022/07/10 09:36:04;;;;;;;0.60;0.60;;;20.00;77.90;;;;;;5092636;28;20035;-69
2022/07/10 09:38:46;;;;;;;1.77;0.90;;;20.00;77.60;;;;;;5093302;28;20059;-69
2022/07/10 09:41:15;;;;;;;0.77;0.70;;;19.90;78.30;;;;;;5093103;28;20059;-69
2022/07/10 09:43:50;;;;;;;0.63;0.63;;;20.00;80.10;;;;;;5092790;28;20024;-69
2022/07/10 09:46:17;;;;;;;1.85;1.17;;;19.90;78.70;;;;;;5093439;28;20353;-69
2022/07/10 09:48:43;;;;;;;1.73;0.90;;;20.10;80.20;;;;;;5093698;28;20113;-69
2022/07/10 09:51:11;;;;;;;0.95;0.77;;;20.20;79.00;;;;;;5091982;28;20130;-69
2022/07/10 09:53:45;;;;;;;2.17;0.98;;;20.10;78.50;;;;;;5093042;28;20040;-69
2022/07/10 09:56:12;;;;;;;3.75;1.20;;;20.20;79.80;;;;;;5093695;28;20024;-70
2022/07/10 09:58:39;;;;;;;2.83;0.80;;;20.30;78.60;;;;;;5093321;28;20529;-70
2022/07/10 10:01:09;;;;;;;1.02;0.70;;;20.40;78.20;;;;;;5092528;28;20040;-68
2022/07/10 10:03:36;;;;;;;1.95;0.98;;;20.30;78.00;;;;;;5090095;28;20078;-70
2022/07/10 10:06:07;;;;;;;1.23;1.00;;;20.30;77.20;;;;;;5092188;28;20070;-69
2022/07/10 10:09:01;;;;;;;1.15;0.90;;;20.20;77.40;;;;;;5092848;28;21359;-69
2022/07/10 10:11:29;;;;;;;1.27;0.90;;;20.20;77.00;;;;;;5104627;28;20085;-69
2022/07/10 10:13:55;;;;;;;0.75;0.63;;;20.20;77.10;;;;;;5093146;28;20028;-69
2022/07/10 10:16:22;;;;;;;1.13;0.80;;;20.10;74.10;;;;;;5100473;28;20024;-69
2022/07/10 10:21:34;;;;;;;2.15;0.85;;;20.30;75.50;;;;;;5089290;28;20081;-69
2022/07/10 10:24:01;;;;;;;1.58;0.90;;;20.40;75.20;;;;;;5091609;28;20016;-70
2022/07/10 10:26:27;;;;;;;2.63;0.90;;;20.50;75.60;;;;;;5091809;28;20448;-68
2022/07/10 10:28:54;;;;;;;1.35;0.75;;;20.50;74.20;;;;;;5090845;28;20062;-77
2022/07/10 10:31:24;;;;;;;2.35;0.80;;;20.50;74.40;;;;;;5091833;28;20024;-82
2022/07/10 10:33:53;;;;;;;2.78;1.60;;;20.60;74.30;;;;;;5092963;28;20020;-79
2022/07/10 10:36:52;;;;;;;1.80;0.90;;;20.60;73.40;;;;;;5090953;28;20502;-74
2022/07/10 10:39:18;;;;;;;2.83;1.20;;;20.60;73.60;;;;;;5043856;28;20468;-74
2022/07/10 10:41:50;;;;;;;4.43;1.10;;;20.50;72.40;;;;;;5091460;28;20520;-74
2022/07/10 10:44:16;;;;;;;1.08;0.90;;;20.50;71.10;;;;;;5088834;28;20020;-74
2022/07/10 10:46:53;;;;;;;2.05;1.23;;;20.50;70.30;;;;;;5091276;28;20487;-74
2022/07/10 10:49:20;;;;;;;2.58;0.80;;;20.50;71.10;;;;;;5089954;28;20341;-75
2022/07/10 10:52:01;;;;;;;1.38;0.90;;;20.50;69.90;;;;;;5092825;28;20036;-75
2022/07/10 10:54:51;;;;;;;1.20;1.10;;;20.40;70.10;;;;;;5092720;28;20044;-75
2022/07/10 10:57:18;;;;;;;2.30;0.90;;;20.40;69.40;;;;;;5091698;28;20465;-74
2022/07/10 10:59:47;;;;;;;1.77;1.00;;;20.30;69.40;;;;;;5092324;28;20392;-73
2022/07/10 11:02:22;;;;;;;2.38;1.40;;;20.40;69.10;;;;;;5091788;28;20028;-74
2022/07/10 11:04:49;;;;;;;3.20;1.67;;;20.20;69.20;;;;;;5089536;28;20039;-74
2022/07/10 11:07:54;;;;;;;0.98;0.93;;;20.20;68.90;;;;;;5092152;28;20480;-74
2022/07/10 11:10:40;;;;;;;2.55;0.70;;;20.10;69.90;;;;;;5092013;28;20097;-74
2022/07/10 11:13:09;;;;;;;1.63;1.08;;;20.10;67.50;;;;;;5092099;28;20062;-73
2022/07/10 11:15:42;;;;;;;1.15;1.05;;;20.10;68.10;;;;;;5092357;28;20032;-74
2022/07/10 11:18:28;;;;;;;2.38;0.70;;;20.10;66.70;;;;;;5091992;28;20028;-74
2022/07/10 11:20:54;;;;;;;1.10;1.00;;;20.10;67.40;;;;;;5099602;28;20028;-75
2022/07/10 11:23:38;;;;;;;1.55;1.00;;;20.20;66.60;;;;;;5100208;28;20022;-74
2022/07/10 11:26:12;;;;;;;1.23;0.70;;;20.20;65.20;;;;;;5099945;28;20024;-74
2022/07/10 11:28:43;;;;;;;1.10;0.85;;;20.30;64.40;;;;;;5092485;28;20155;-77
2022/07/10 11:31:09;;;;;;;1.17;0.70;;;20.30;64.60;;;;;;5090561;28;20085;-66
2022/07/10 11:33:43;;;;;;;0.60;0.60;;;20.30;64.30;;;;;;5091279;28;20036;-81
2022/07/10 11:36:28;;;;;;;0.80;0.73;;;20.30;63.70;;;;;;5090597;28;20032;-81
2022/07/10 11:39:07;;;;;;;1.08;0.85;;;20.20;62.80;;;;;;5089847;28;20020;-80
2022/07/10 11:41:33;;;;;;;0.80;0.70;;;20.30;65.00;;;;;;5075324;28;20032;-81
2022/07/10 11:44:02;;;;;;;0.95;0.57;;;20.30;62.90;;;;;;5100523;28;20036;-79
2022/07/10 11:46:38;;;;;;;1.20;0.70;;;20.30;62.30;;;;;;5104578;28;20020;-79
2022/07/10 11:49:05;;;;;;;1.63;0.60;;;20.30;61.30;;;;;;5094749;28;20486;-74
2022/07/10 11:51:34;;;;;;;1.35;0.70;;;20.30;61.10;;;;;;5095110;28;20387;-78
2022/07/10 11:54:02;;;;;;;0.77;0.77;;;20.10;61.10;;;;;;5097423;28;20391;-75
2022/07/10 11:56:36;;;;;;;0.90;0.70;;;20.20;61.40;;;;;;5096041;28;20036;-74
2022/07/10 11:59:08;;;;;;;1.40;0.80;;;20.20;60.90;;;;;;5096243;28;20063;-83
2022/07/10 12:01:41;;;;;;;3.10;0.80;;;20.20;60.30;;;;;;5096551;28;20024;-74
2022/07/10 12:04:08;;;;;;;1.02;0.80;;;20.30;60.70;;;;;;5094660;28;20028;-79
2022/07/10 12:06:36;;;;;;;0.52;0.52;;;20.30;60.60;;;;;;5095020;28;20028;-76
2022/07/10 12:09:14;;;;;;;0.50;0.50;;;20.40;61.50;;;;;;5094738;28;20085;-76
2022/07/10 12:11:40;;;;;;;1.15;0.95;;;20.40;61.50;;;;;;5094640;28;20103;-77
2022/07/10 12:14:17;;;;;;;0.70;0.60;;;20.40;60.40;;;;;;5094967;28;20119;-76
2022/07/10 12:16:44;;;;;;;0.75;0.75;;;20.40;60.20;;;;;;5092348;28;20456;-76
2022/07/10 12:19:12;;;;;;;0.70;0.68;;;20.40;60.20;;;;;;5093920;28;20059;-77
2022/07/10 12:21:39;;;;;;;0.70;0.60;;;20.40;59.60;;;;;;5094001;28;20111;-76
2022/07/10 12:24:05;;;;;;;0.52;0.50;;;20.40;60.00;;;;;;5094089;28;20031;-74
2022/07/10 12:26:34;;;;;;;0.57;0.57;;;20.50;59.10;;;;;;5094149;28;20028;-76
2022/07/10 12:29:00;;;;;;;0.70;0.70;;;20.60;58.30;;;;;;5093969;28;20046;-76
2022/07/10 12:31:31;;;;;;;1.52;0.77;;;20.60;54.50;;;;;;5093556;28;20024;-76
2022/07/10 12:34:03;;;;;;;0.65;0.55;;;20.70;53.80;;;;;;5093838;28;20028;-76
2022/07/10 12:36:44;;;;;;;3.28;0.60;;;20.90;53.80;;;;;;5093364;28;20536;-76
2022/07/10 12:39:11;;;;;;;0.50;0.50;;;21.00;53.70;;;;;;5091316;28;20035;-77
2022/07/10 12:41:58;;;;;;;0.60;0.50;;;21.00;52.30;;;;;;5093933;28;20036;-77
2022/07/10 12:44:34;;;;;;;1.38;0.60;;;21.00;51.70;;;;;;5093083;28;20016;-76
2022/07/10 12:47:21;;;;;;;0.90;0.60;;;21.10;51.40;;;;;;5093871;28;20028;-75
2022/07/10 12:50:06;;;;;;;1.77;0.70;;;21.20;51.50;;;;;;5090810;28;20020;-78
2022/07/10 12:52:39;;;;;;;0.90;0.60;;;21.20;51.50;;;;;;5092017;28;20118;-77
2022/07/10 12:55:16;;;;;;;1.27;0.70;;;21.30;52.70;;;;;;5093123;28;20034;-76
2022/07/10 12:57:59;;;;;;;3.13;1.17;;;21.30;53.60;;;;;;5093595;28;20031;-76
2022/07/10 13:00:30;;;;;;;1.13;0.45;;;21.30;53.20;;;;;;5092921;28;20031;-77
2022/07/10 13:03:02;;;;;;;2.40;0.52;;;21.30;52.30;;;;;;5093085;28;20476;-76
2022/07/10 13:05:40;;;;;;;1.27;0.52;;;21.20;51.20;;;;;;5090487;28;20024;-77